createdAt,value
2017-09-23T00:00:45.509Z,38.50
2017-09-23T00:03:14.570Z,39.07
2017-09-23T00:05:43.808Z,38.50
2017-09-23T00:08:12.886Z,39.20
2017-09-23T00:10:41.927Z,41.67
2017-09-23T00:13:10.240Z,38.90
2017-09-23T00:15:38.631Z,41.60
2017-09-23T00:18:08.475Z,42.73
2017-09-23T00:20:36.767Z,42.23
2017-09-23T00:23:05.843Z,39.00
2017-09-23T00:25:34.922Z,39.90
2017-09-23T00:28:04.016Z,38.83
2017-09-23T00:30:32.310Z,43.07
2017-09-23T00:33:00.604Z,42.10
2017-09-23T00:35:29.002Z,40.40
2017-09-23T00:37:57.282Z,41.37
2017-09-23T00:40:26.373Z,39.27
2017-09-23T00:42:54.661Z,41.03
2017-09-23T00:45:23.838Z,38.33
2017-09-23T00:47:52.148Z,45.37
2017-09-23T00:50:21.211Z,40.80
2017-09-23T00:52:49.537Z,39.33
2017-09-23T00:55:18.578Z,37.67
2017-09-23T00:57:46.879Z,38.40
2017-09-23T01:00:15.252Z,41.60
2017-09-23T01:02:43.602Z,42.03
2017-09-23T01:05:12.700Z,39.40
2017-09-23T01:07:40.988Z,38.83
2017-09-23T01:10:09.307Z,40.33
2017-09-23T01:12:37.591Z,39.90
2017-09-23T01:15:05.892Z,35.37
2017-09-23T01:17:34.176Z,35.77
2017-09-23T01:20:02.467Z,38.40
2017-09-23T01:22:31.640Z,39.23
2017-09-23T01:24:59.970Z,37.00
2017-09-23T01:27:28.272Z,37.30
2017-09-23T01:29:56.623Z,45.53
2017-09-23T01:32:25.671Z,37.13
2017-09-23T01:34:53.986Z,37.70
2017-09-23T01:37:23.029Z,36.87
2017-09-23T01:39:51.332Z,38.13
2017-09-23T01:42:19.632Z,32.60
2017-09-23T01:44:47.938Z,33.93
2017-09-23T01:47:17.018Z,36.57
2017-09-23T01:49:46.815Z,34.60
2017-09-23T01:52:15.459Z,34.50
2017-09-23T01:54:44.628Z,37.27
2017-09-23T01:57:12.944Z,35.13
2017-09-23T01:59:41.281Z,33.87
2017-09-23T02:02:10.006Z,32.80
2017-09-23T02:04:39.113Z,34.33
2017-09-23T02:07:07.415Z,30.80
2017-09-23T02:09:35.727Z,33.10
2017-09-23T02:12:04.022Z,35.07
2017-09-23T02:14:32.597Z,29.40
2017-09-23T02:17:01.304Z,35.20
2017-09-23T02:19:29.591Z,32.63
2017-09-23T02:21:57.926Z,31.07
2017-09-23T02:24:26.217Z,29.07
2017-09-23T02:26:54.604Z,28.83
2017-09-23T02:29:22.892Z,30.83
2017-09-23T02:31:51.410Z,28.70
2017-09-23T02:34:19.684Z,32.30
2017-09-23T02:36:49.510Z,28.30
2017-09-23T02:39:17.803Z,29.33
2017-09-23T02:41:46.866Z,28.70
2017-09-23T02:44:15.150Z,27.57
2017-09-23T02:46:43.466Z,26.10
2017-09-23T02:49:12.530Z,27.17
2017-09-23T02:51:40.861Z,32.17
2017-09-23T02:54:09.943Z,29.50
2017-09-23T02:56:38.224Z,27.53
2017-09-23T02:59:07.882Z,26.33
2017-09-23T03:01:36.212Z,27.63
2017-09-23T03:04:04.828Z,31.10
2017-09-23T03:06:33.163Z,30.47
2017-09-23T03:09:01.526Z,29.97
2017-09-23T03:11:30.587Z,34.03
2017-09-23T03:13:59.687Z,27.37
2017-09-23T03:16:28.755Z,26.30
2017-09-23T03:18:57.040Z,27.33
2017-09-23T03:21:25.370Z,27.33
2017-09-23T03:23:54.106Z,28.67
2017-09-23T03:26:22.427Z,27.50
2017-09-23T03:28:51.471Z,24.27
2017-09-23T03:31:19.766Z,23.63
2017-09-23T03:33:48.060Z,22.23
2017-09-23T03:36:18.117Z,25.23
2017-09-23T03:38:46.407Z,29.87
2017-09-23T03:41:15.796Z,26.20
2017-09-23T03:43:44.125Z,23.47
2017-09-23T03:46:12.431Z,27.67
2017-09-23T03:48:40.791Z,26.90
2017-09-23T03:51:09.443Z,26.83
2017-09-23T03:53:37.773Z,22.90
2017-09-23T03:56:06.071Z,27.23
2017-09-23T03:58:34.376Z,23.93
2017-09-23T04:01:03.747Z,26.37
2017-09-23T04:03:32.472Z,24.97
2017-09-23T04:06:02.378Z,24.73
2017-09-23T04:08:32.190Z,25.27
2017-09-23T04:11:00.841Z,25.93
2017-09-23T04:13:29.170Z,22.90
2017-09-23T04:15:57.469Z,23.07
2017-09-23T04:18:25.847Z,23.23
2017-09-23T04:20:55.151Z,25.03
2017-09-23T04:23:24.247Z,23.87
2017-09-23T04:25:53.310Z,23.80
2017-09-23T04:28:21.633Z,23.60
2017-09-23T04:30:50.726Z,25.67
2017-09-23T04:33:20.776Z,23.47
2017-09-23T04:35:49.116Z,26.97
2017-09-23T04:38:18.185Z,23.80
2017-09-23T04:40:46.493Z,28.30
2017-09-23T04:43:16.306Z,25.60
2017-09-23T04:45:46.133Z,23.33
2017-09-23T04:48:15.254Z,24.03
2017-09-23T04:50:43.546Z,23.53
2017-09-23T04:53:12.608Z,23.43
2017-09-23T04:55:40.946Z,23.53
2017-09-23T04:58:09.584Z,24.27
2017-09-23T05:00:37.892Z,24.80
2017-09-23T05:03:07.889Z,24.73
2017-09-23T05:05:36.987Z,23.10
2017-09-23T05:08:06.071Z,25.83
2017-09-23T05:10:34.388Z,21.87
2017-09-23T05:13:03.760Z,23.30
2017-09-23T05:15:32.067Z,23.77
2017-09-23T05:18:01.123Z,24.60
2017-09-23T05:20:29.770Z,22.53
2017-09-23T05:22:58.064Z,21.13
2017-09-23T05:25:26.436Z,22.00
2017-09-23T05:27:55.507Z,21.40
2017-09-23T05:30:26.073Z,22.07
2017-09-23T05:32:56.732Z,22.07
2017-09-23T05:35:25.044Z,21.73
2017-09-23T05:37:54.837Z,22.10
2017-09-23T05:40:23.135Z,20.20
2017-09-23T05:42:51.458Z,19.77
2017-09-23T05:45:20.577Z,22.13
2017-09-23T05:47:48.894Z,20.67
2017-09-23T05:50:17.220Z,20.73
2017-09-23T05:52:47.213Z,24.33
2017-09-23T05:55:15.499Z,20.50
2017-09-23T05:57:43.774Z,18.47
2017-09-23T06:00:12.067Z,20.07
2017-09-23T06:02:41.272Z,21.60
2017-09-23T06:05:09.603Z,20.63
2017-09-23T06:07:37.879Z,18.20
2017-09-23T06:10:06.293Z,17.13
2017-09-23T06:12:34.598Z,19.57
2017-09-23T06:15:02.951Z,16.63
2017-09-23T06:17:31.236Z,16.07
2017-09-23T06:19:59.542Z,16.43
2017-09-23T06:22:29.354Z,16.80
2017-09-23T06:24:57.692Z,16.60
2017-09-23T06:27:25.996Z,14.10
2017-09-23T06:29:54.338Z,14.63
2017-09-23T06:32:23.398Z,17.03
2017-09-23T06:34:51.716Z,14.47
2017-09-23T06:37:20.819Z,15.07
2017-09-23T06:39:49.948Z,18.37
2017-09-23T06:42:19.183Z,15.67
2017-09-23T06:44:47.507Z,15.00
2017-09-23T06:47:16.582Z,13.90
2017-09-23T06:49:45.306Z,14.33
2017-09-23T06:52:13.627Z,14.17
2017-09-23T06:54:41.923Z,14.73
2017-09-23T06:57:10.369Z,13.50
2017-09-23T06:59:38.691Z,14.13
2017-09-23T07:02:07.021Z,15.17
2017-09-23T07:04:36.054Z,15.80
2017-09-23T07:07:04.360Z,17.13
2017-09-23T07:09:32.685Z,15.63
2017-09-23T07:12:01.045Z,14.77
2017-09-23T07:14:30.106Z,15.70
2017-09-23T07:16:58.441Z,15.00
2017-09-23T07:19:28.418Z,16.57
2017-09-23T07:21:56.633Z,17.13
2017-09-23T07:24:25.739Z,16.67
2017-09-23T07:26:55.707Z,16.53
2017-09-23T07:29:25.547Z,15.53
2017-09-23T07:31:55.454Z,18.00
2017-09-23T07:34:26.112Z,14.30
2017-09-23T07:36:55.980Z,14.43
2017-09-23T07:39:25.822Z,14.23
2017-09-23T07:41:55.658Z,16.93
2017-09-23T07:44:25.484Z,14.97
2017-09-23T07:46:55.375Z,15.83
2017-09-23T07:49:25.256Z,18.70
2017-09-23T07:51:55.120Z,13.23
2017-09-23T07:54:25.595Z,16.00
2017-09-23T07:56:56.048Z,13.57
2017-09-23T07:59:25.888Z,13.13
2017-09-23T08:01:55.742Z,14.70
2017-09-23T08:04:25.582Z,13.57
2017-09-23T08:06:59.475Z,14.13
2017-09-23T08:09:29.318Z,12.37
2017-09-23T08:12:03.784Z,14.43
2017-09-23T08:14:34.212Z,12.70
2017-09-23T08:17:04.393Z,12.33
2017-09-23T08:19:34.826Z,12.50
2017-09-23T08:22:04.699Z,13.97
2017-09-23T08:24:34.505Z,13.53
2017-09-23T08:27:04.351Z,10.53
2017-09-23T08:29:34.209Z,10.67
2017-09-23T08:32:04.864Z,12.63
2017-09-23T08:34:34.674Z,9.40
2017-09-23T08:37:05.415Z,9.60
2017-09-23T08:39:35.234Z,9.73
2017-09-23T08:42:05.055Z,12.07
2017-09-23T08:44:34.886Z,11.27
2017-09-23T08:47:04.749Z,9.83
2017-09-23T08:49:34.587Z,12.60
2017-09-23T08:52:04.446Z,11.40
2017-09-23T08:54:34.766Z,12.23
2017-09-23T08:57:04.634Z,11.27
2017-09-23T08:59:34.436Z,11.67
2017-09-23T09:02:04.622Z,11.17
2017-09-23T09:04:34.443Z,13.30
2017-09-23T09:07:04.642Z,11.40
2017-09-23T09:09:37.774Z,13.30
2017-09-23T09:12:08.000Z,11.53
2017-09-23T09:14:37.820Z,11.23
2017-09-23T09:17:07.639Z,9.93
2017-09-23T09:19:37.481Z,10.40
2017-09-23T09:22:07.329Z,10.97
2017-09-23T09:24:37.171Z,11.27
2017-09-23T09:27:06.962Z,10.97
2017-09-23T09:29:36.800Z,10.93
2017-09-23T09:32:06.619Z,11.33
2017-09-23T09:34:36.506Z,11.47
2017-09-23T09:37:06.317Z,11.43
2017-09-23T09:39:36.175Z,12.30
2017-09-23T09:42:06.006Z,15.73
2017-09-23T09:44:35.852Z,11.40
2017-09-23T09:47:05.696Z,11.53
2017-09-23T09:49:35.753Z,12.07
2017-09-23T09:52:05.579Z,11.90
2017-09-23T09:54:35.401Z,9.97
2017-09-23T09:57:05.434Z,8.97
2017-09-23T09:59:35.284Z,13.77
2017-09-23T10:02:05.156Z,10.47
2017-09-23T10:04:35.007Z,16.03
2017-09-23T10:07:04.950Z,11.37
2017-09-23T10:09:34.789Z,11.67
2017-09-23T10:12:04.633Z,12.90
2017-09-23T10:14:34.474Z,10.53
2017-09-23T10:17:04.312Z,10.87
2017-09-23T10:19:34.167Z,9.97
2017-09-23T10:22:04.034Z,12.30
2017-09-23T10:24:33.844Z,12.37
2017-09-23T10:27:05.083Z,12.80
2017-09-23T10:29:34.914Z,10.27
2017-09-23T10:32:04.740Z,14.30
2017-09-23T10:34:34.581Z,11.07
2017-09-23T10:37:04.403Z,10.83
2017-09-23T10:39:34.242Z,11.90
2017-09-23T10:42:04.070Z,10.70
2017-09-23T10:44:36.147Z,9.60
2017-09-23T10:47:05.964Z,11.43
2017-09-23T10:49:35.845Z,15.70
2017-09-23T10:52:06.398Z,11.27
2017-09-23T10:54:36.232Z,10.13
2017-09-23T10:57:06.066Z,9.30
2017-09-23T10:59:35.893Z,8.40
2017-09-23T11:02:05.725Z,7.83
2017-09-23T11:04:35.796Z,7.93
2017-09-23T11:07:05.598Z,7.50
2017-09-23T11:09:35.417Z,7.60
2017-09-23T11:12:05.230Z,7.87
2017-09-23T11:14:35.081Z,7.60
2017-09-23T11:17:04.937Z,7.30
2017-09-23T11:19:35.100Z,6.90
2017-09-23T11:22:05.387Z,7.07
2017-09-23T11:24:35.308Z,8.03
2017-09-23T11:27:05.109Z,9.53
2017-09-23T11:29:33.308Z,7.67
2017-09-23T11:32:02.376Z,6.70
2017-09-23T11:34:30.731Z,7.80
2017-09-23T11:36:59.002Z,7.77
2017-09-23T11:39:28.967Z,11.33
2017-09-23T11:41:57.256Z,8.97
2017-09-23T11:44:26.269Z,8.70
2017-09-23T11:46:55.318Z,9.23
2017-09-23T11:49:23.666Z,6.37
2017-09-23T11:51:53.586Z,6.43
2017-09-23T11:54:25.580Z,7.07
2017-09-23T11:56:55.398Z,9.90
2017-09-23T11:59:25.267Z,6.67
2017-09-23T12:01:55.081Z,5.70
2017-09-23T12:04:25.214Z,5.13
2017-09-23T12:06:55.019Z,5.57
2017-09-23T12:09:24.880Z,5.33
2017-09-23T12:11:54.702Z,14.87
2017-09-23T12:14:24.533Z,4.77
2017-09-23T12:16:54.356Z,6.10
2017-09-23T12:19:24.197Z,7.47
2017-09-23T12:21:55.685Z,6.00
2017-09-23T12:24:25.514Z,7.20
2017-09-23T12:26:55.313Z,8.10
2017-09-23T12:29:25.228Z,5.47
2017-09-23T12:31:53.405Z,4.23
2017-09-23T12:34:22.466Z,5.57
2017-09-23T12:36:50.774Z,4.60
2017-09-23T12:39:19.081Z,7.23
2017-09-23T12:41:48.470Z,5.77
2017-09-23T12:44:17.552Z,6.53
2017-09-23T12:46:47.522Z,7.70
2017-09-23T12:49:16.453Z,5.50
2017-09-23T12:51:44.716Z,5.87
2017-09-23T12:54:14.744Z,6.27
2017-09-23T12:56:43.050Z,6.07
2017-09-23T12:59:11.345Z,5.27
2017-09-23T13:01:39.937Z,6.60
2017-09-23T13:04:08.227Z,6.60
2017-09-23T13:06:37.329Z,6.57
2017-09-23T13:09:05.623Z,5.77
2017-09-23T13:11:34.671Z,6.00
2017-09-23T13:14:03.303Z,5.40
2017-09-23T13:16:31.579Z,5.87
2017-09-23T13:18:59.934Z,5.50
2017-09-23T13:21:28.329Z,8.00
2017-09-23T13:23:56.595Z,8.87
2017-09-23T13:26:25.315Z,4.80
2017-09-23T13:28:54.030Z,6.27
2017-09-23T13:31:22.344Z,5.70
2017-09-23T13:33:50.658Z,6.30
2017-09-23T13:36:18.947Z,5.27
2017-09-23T13:38:48.183Z,9.27
2017-09-23T13:41:18.153Z,6.17
2017-09-23T13:43:48.338Z,5.13
2017-09-23T13:46:18.153Z,5.33
2017-09-23T13:48:47.999Z,5.33
2017-09-23T13:51:16.232Z,5.90
2017-09-23T13:53:44.569Z,7.30
2017-09-23T13:56:14.539Z,6.50
2017-09-23T13:58:44.373Z,5.27
2017-09-23T14:01:14.220Z,5.40
2017-09-23T14:03:44.080Z,5.13
2017-09-23T14:06:13.858Z,4.83
2017-09-23T14:08:42.095Z,6.87
2017-09-23T14:11:10.424Z,9.30
2017-09-23T14:13:38.758Z,5.87
2017-09-23T14:16:07.040Z,6.97
2017-09-23T14:18:35.375Z,7.33
2017-09-23T14:21:05.174Z,5.67
2017-09-23T14:23:33.482Z,6.60
2017-09-23T14:26:02.542Z,6.00
2017-09-23T14:28:30.839Z,6.90
2017-09-23T14:30:59.138Z,8.07
2017-09-23T14:33:27.480Z,6.60
2017-09-23T14:35:55.748Z,10.97
2017-09-23T14:38:24.074Z,8.10
2017-09-23T14:40:52.364Z,10.60
2017-09-23T14:43:20.689Z,8.40
2017-09-23T14:45:48.974Z,6.73
2017-09-23T14:48:17.294Z,6.57
2017-09-23T14:50:45.586Z,6.00
2017-09-23T14:53:14.127Z,4.80
2017-09-23T14:55:42.430Z,6.50
2017-09-23T14:58:11.065Z,5.63
2017-09-23T15:00:39.347Z,5.67
2017-09-23T15:03:07.636Z,6.03
2017-09-23T15:05:37.103Z,9.83
2017-09-23T15:08:05.424Z,6.43
2017-09-23T15:10:34.477Z,7.73
2017-09-23T15:13:03.107Z,7.40
2017-09-23T15:15:32.452Z,17.23
2017-09-23T15:18:00.731Z,10.10
2017-09-23T15:20:29.047Z,7.90
2017-09-23T15:22:57.385Z,8.13
2017-09-23T15:25:26.015Z,7.87
2017-09-23T15:27:54.690Z,8.70
2017-09-23T15:30:23.038Z,12.27
2017-09-23T15:32:51.659Z,8.67
2017-09-23T15:35:19.958Z,8.30
2017-09-23T15:37:48.230Z,8.10
2017-09-23T15:40:16.537Z,7.40
2017-09-23T15:42:45.592Z,10.10
2017-09-23T15:45:14.197Z,9.57
2017-09-23T15:47:42.466Z,8.33
2017-09-23T15:50:10.755Z,8.27
2017-09-23T15:52:39.050Z,9.20
2017-09-23T15:55:07.323Z,8.33
2017-09-23T15:57:35.987Z,17.50
2017-09-23T16:00:05.024Z,10.50
2017-09-23T16:02:34.260Z,9.93
2017-09-23T16:05:03.640Z,11.30
2017-09-23T16:07:32.748Z,13.70
2017-09-23T16:10:01.223Z,10.47
2017-09-23T16:12:30.696Z,13.93
2017-09-23T16:14:58.991Z,11.60
2017-09-23T16:17:27.336Z,12.57
2017-09-23T16:19:56.676Z,12.10
2017-09-23T16:22:25.015Z,14.23
2017-09-23T16:24:54.476Z,16.03
2017-09-23T16:27:23.071Z,16.90
2017-09-23T16:29:51.364Z,13.50
2017-09-23T16:32:19.677Z,13.80
2017-09-23T16:34:49.051Z,20.10
2017-09-23T16:37:17.343Z,17.87
2017-09-23T16:39:45.643Z,15.43
2017-09-23T16:42:14.835Z,17.33
2017-09-23T16:44:43.515Z,15.67
2017-09-23T16:47:12.152Z,21.27
2017-09-23T16:49:40.465Z,16.97
2017-09-23T16:52:09.147Z,18.80
2017-09-23T16:54:39.518Z,18.70
2017-09-23T16:57:10.227Z,19.67
2017-09-23T16:59:38.543Z,17.20
2017-09-23T17:02:07.907Z,20.53
2017-09-23T17:04:36.239Z,20.50
2017-09-23T17:07:05.294Z,20.47
2017-09-23T17:09:33.894Z,19.67
2017-09-23T17:12:02.250Z,24.60
2017-09-23T17:14:30.547Z,24.87
2017-09-23T17:16:58.860Z,19.47
2017-09-23T17:19:27.940Z,21.27
2017-09-23T17:21:56.512Z,22.47
2017-09-23T17:24:24.886Z,20.50
2017-09-23T17:26:53.189Z,19.03
2017-09-23T17:29:22.446Z,22.03
2017-09-23T17:31:50.724Z,23.47
2017-09-23T17:34:19.062Z,20.73
2017-09-23T17:36:47.398Z,23.60
2017-09-23T17:39:15.718Z,21.30
2017-09-23T17:41:44.307Z,24.70
2017-09-23T17:44:12.717Z,23.87
2017-09-23T17:46:41.781Z,24.00
2017-09-23T17:49:10.386Z,23.60
2017-09-23T17:51:38.701Z,22.40
2017-09-23T17:54:07.739Z,21.50
2017-09-23T17:56:36.875Z,23.00
2017-09-23T17:59:05.552Z,23.17
2017-09-23T18:01:34.247Z,23.43
2017-09-23T18:04:02.543Z,23.90
2017-09-23T18:06:30.867Z,24.70
2017-09-23T18:08:59.525Z,22.87
2017-09-23T18:11:27.823Z,22.83
2017-09-23T18:13:56.871Z,22.47
2017-09-23T18:16:25.563Z,24.60
2017-09-23T18:18:54.312Z,24.13
2017-09-23T18:21:22.636Z,26.47
2017-09-23T18:23:51.322Z,24.17
2017-09-23T18:26:19.621Z,24.47
2017-09-23T18:28:48.018Z,30.60
2017-09-23T18:31:16.587Z,28.30
2017-09-23T18:33:45.391Z,27.73
2017-09-23T18:36:13.672Z,30.30
2017-09-23T18:38:41.968Z,36.80
2017-09-23T18:41:11.031Z,29.60
2017-09-23T18:43:40.358Z,27.50
2017-09-23T18:46:09.352Z,25.57
2017-09-23T18:48:37.645Z,36.20
2017-09-23T18:51:06.245Z,30.00
2017-09-23T18:53:35.319Z,34.70
2017-09-23T18:56:03.622Z,30.53
2017-09-23T18:58:32.289Z,33.40
2017-09-23T19:01:00.676Z,31.10
2017-09-23T19:03:28.976Z,33.77
2017-09-23T19:05:59.179Z,34.10
2017-09-23T19:08:30.361Z,32.73
2017-09-23T19:10:58.701Z,36.07
2017-09-23T19:13:27.281Z,36.57
2017-09-23T19:15:55.587Z,40.70
2017-09-23T19:18:23.861Z,39.50
2017-09-23T19:20:52.454Z,39.80
2017-09-23T19:23:20.752Z,42.03
2017-09-23T19:25:49.034Z,37.23
2017-09-23T19:28:17.719Z,34.00
2017-09-23T19:30:46.292Z,32.93
2017-09-23T19:33:14.660Z,37.80
2017-09-23T19:35:42.993Z,39.43
2017-09-23T19:38:12.795Z,33.23
2017-09-23T19:40:41.468Z,35.40
2017-09-23T19:43:11.255Z,36.73
2017-09-23T19:45:39.576Z,35.07
2017-09-23T19:48:08.348Z,38.40
2017-09-23T19:50:36.623Z,38.23
2017-09-23T19:53:04.917Z,37.00
2017-09-23T19:55:36.408Z,41.90
2017-09-23T19:58:05.460Z,43.33
2017-09-23T20:00:34.151Z,35.60
2017-09-23T20:03:02.548Z,33.20
2017-09-23T20:05:30.854Z,29.90
2017-09-23T20:08:00.235Z,33.07
2017-09-23T20:17:16.091Z,32.20
2017-09-23T20:19:44.374Z,30.43
2017-09-23T20:22:12.663Z,30.80
2017-09-23T20:24:41.693Z,33.13
2017-09-23T20:27:10.761Z,33.03
2017-09-23T20:29:39.385Z,35.30
2017-09-23T20:32:07.678Z,39.10
2017-09-23T20:34:37.672Z,31.80
2017-09-23T20:37:06.242Z,32.13
2017-09-23T20:39:34.576Z,37.60
2017-09-23T20:42:03.605Z,30.57
2017-09-23T20:44:31.924Z,29.57
2017-09-23T20:47:01.607Z,30.30
2017-09-23T20:49:30.206Z,29.33
2017-09-23T20:51:58.486Z,32.47
2017-09-23T20:54:26.803Z,34.17
2017-09-23T20:56:59.033Z,26.60
2017-09-23T20:59:27.975Z,30.07
2017-09-23T21:01:57.000Z,28.37
2017-09-23T21:04:25.624Z,29.37
2017-09-23T21:06:54.715Z,34.50
2017-09-23T21:09:23.030Z,27.80
2017-09-23T21:11:51.799Z,29.20
2017-09-23T21:14:20.117Z,26.57
2017-09-23T21:16:49.890Z,27.13
2017-09-23T21:19:18.440Z,25.47
2017-09-23T21:21:48.094Z,29.83
2017-09-23T21:24:16.330Z,28.07
2017-09-23T21:26:45.668Z,29.80
2017-09-23T21:29:13.981Z,28.07
2017-09-23T21:31:42.275Z,26.40
2017-09-23T21:34:10.942Z,26.90
2017-09-23T21:36:39.248Z,32.83
2017-09-23T21:39:08.300Z,32.30
2017-09-23T21:41:36.943Z,33.63
2017-09-23T21:44:05.224Z,32.27
2017-09-23T21:46:35.170Z,32.90
2017-09-23T21:49:05.818Z,33.83
2017-09-23T21:51:35.638Z,30.73
2017-09-23T21:54:05.467Z,32.40
2017-09-23T21:56:35.286Z,33.33
2017-09-23T21:59:05.103Z,33.93
2017-09-23T22:01:35.258Z,33.77
2017-09-23T22:04:05.070Z,28.93
2017-09-23T22:06:35.179Z,32.83
2017-09-23T22:09:04.982Z,31.30
2017-09-23T22:11:34.810Z,27.57
2017-09-23T22:14:03.289Z,27.50
2017-09-23T22:16:33.245Z,36.27
2017-09-23T22:19:03.342Z,34.30
2017-09-23T22:21:33.166Z,34.40
2017-09-23T22:24:03.312Z,26.30
2017-09-23T22:26:33.106Z,24.37
2017-09-23T22:29:01.282Z,25.43
2017-09-23T22:31:29.858Z,26.13
2017-09-23T22:33:58.162Z,25.60
2017-09-23T22:36:26.460Z,26.27
2017-09-23T22:38:54.751Z,27.10
2017-09-23T22:41:23.069Z,28.40
2017-09-23T22:43:51.846Z,25.60
2017-09-23T22:46:21.756Z,24.13
2017-09-23T22:48:51.923Z,31.73
2017-09-23T22:51:21.765Z,24.80
2017-09-23T22:53:51.575Z,25.63
2017-09-23T22:56:21.714Z,23.20
2017-09-23T22:58:51.535Z,22.77
2017-09-23T23:01:22.661Z,23.20
2017-09-23T23:03:52.465Z,21.80
2017-09-23T23:06:22.593Z,23.90
2017-09-23T23:08:52.408Z,18.80
2017-09-23T23:11:22.537Z,24.10
2017-09-23T23:13:52.449Z,19.37
2017-09-23T23:16:22.560Z,20.63
2017-09-23T23:18:53.165Z,24.23
2017-09-23T23:21:23.325Z,17.97
2017-09-23T23:23:53.126Z,18.83
2017-09-23T23:26:21.292Z,19.27
2017-09-23T23:28:51.302Z,19.90
2017-09-23T23:31:21.102Z,17.43
2017-09-23T23:33:51.190Z,18.73
2017-09-23T23:36:21.630Z,16.97
2017-09-23T23:38:51.877Z,14.47
2017-09-23T23:41:21.681Z,13.70
2017-09-23T23:43:51.886Z,20.13
2017-09-23T23:46:21.696Z,16.63
2017-09-23T23:48:51.518Z,13.57
2017-09-23T23:51:21.655Z,17.17
2017-09-23T23:53:51.442Z,15.97
2017-09-23T23:56:21.519Z,15.63
2017-09-23T23:58:51.347Z,15.30
